Time;durP1;ratioP1;P1;durP2;ratioP2;P2;SDS_P1;SDS_P2;PMS_P1;PMS_P2;Temp;Humidity;BMP_temperature;BMP_pressure;BME280_temperature;BME280_humidity;BME280_pressure;Samples;Min_cycle;Max_cycle;Signal;HPM_P1;HPM_P2
2024/01/22 00:00:50;;;;;;;12.10;4.85;;;;;;;;;;4994585;28;20430;-77
2024/01/22 00:03:16;;;;;;;13.48;6.10;;;;;;;;;;4977710;28;20065;-77
2024/01/22 00:05:41;;;;;;;12.38;5.70;;;;;;;;;;4994862;28;20544;-77
2024/01/22 00:08:06;;;;;;;9.52;4.70;;;;;;;;;;4994998;28;20109;-77
2024/01/22 00:10:31;;;;;;;11.32;5.40;;;;;;;;;;4994998;28;20025;-77
2024/01/22 00:12:57;;;;;;;12.73;5.55;;;;;;;;;;4995187;28;20041;-78
2024/01/22 00:15:22;;;;;;;8.55;5.28;;;;;;;;;;4994982;28;20030;-77
2024/01/22 00:17:48;;;;;;;12.85;6.30;;;;;;;;;;4995099;28;20482;-78
2024/01/22 00:20:13;;;;;;;14.20;6.13;;;;;;;;;;4977678;28;20038;-78
2024/01/22 00:22:38;;;;;;;13.57;5.55;;;;;;;;;;4995245;28;20409;-79
2024/01/22 00:25:03;;;;;;;12.43;6.00;;;;;;;;;;4977733;28;20030;-79
2024/01/22 00:27:29;;;;;;;13.65;5.82;;;;;;;;;;4995489;28;20076;-79
2024/01/22 00:29:54;;;;;;;7.75;4.55;;;;;;;;;;4994493;28;20371;-77
2024/01/22 00:32:19;;;;;;;12.90;6.18;;;;;;;;;;4993084;28;20393;-77
2024/01/22 00:34:44;;;;;;;14.70;6.07;;;;;;;;;;4993073;28;20489;-78
2024/01/22 00:37:10;;;;;;;12.60;6.03;;;;;;;;;;4994679;28;20117;-78
2024/01/22 00:39:35;;;;;;;15.25;6.15;;;;;;;;;;4995335;28;20026;-78
2024/01/22 00:42:00;;;;;;;10.85;5.97;;;;;;;;;;4994014;28;20112;-79
2024/01/22 00:44:25;;;;;;;11.77;5.22;;;;;;;;;;4978222;28;20076;-79
2024/01/22 00:46:51;;;;;;;10.88;5.25;;;;;;;;;;4995705;28;20026;-78
2024/01/22 00:49:16;;;;;;;10.48;5.60;;;;;;;;;;4995367;28;20030;-79
2024/01/22 00:51:41;;;;;;;12.32;5.75;;;;;;;;;;4995297;28;20539;-78
2024/01/22 00:54:06;;;;;;;9.40;5.13;;;;;;;;;;4978719;28;20458;-78
2024/01/22 00:56:33;;;;;;;9.95;5.57;;;;;;;;;;4995645;28;20080;-78
2024/01/22 00:58:58;;;;;;;14.13;5.47;;;;;;;;;;4994913;28;20022;-77
2024/01/22 01:01:23;;;;;;;10.00;4.60;;;;;;;;;;4994511;28;20030;-78
2024/01/22 01:03:48;;;;;;;7.25;3.75;;;;;;;;;;4994893;28;20105;-77
2024/01/22 01:06:14;;;;;;;11.63;5.13;;;;;;;;;;4994587;28;20481;-78
2024/01/22 01:08:39;;;;;;;6.13;3.67;;;;;;;;;;4995104;28;20022;-77
2024/01/22 01:11:04;;;;;;;10.85;5.00;;;;;;;;;;4995248;28;20078;-79
2024/01/22 01:13:29;;;;;;;11.10;5.25;;;;;;;;;;4996081;28;20061;-78
2024/01/22 01:15:54;;;;;;;11.18;4.78;;;;;;;;;;4996008;28;20030;-78
2024/01/22 01:18:20;;;;;;;14.32;6.32;;;;;;;;;;4996353;28;20054;-78
2024/01/22 01:20:45;;;;;;;11.55;5.55;;;;;;;;;;4977241;28;20030;-78
2024/01/22 01:23:10;;;;;;;11.10;4.75;;;;;;;;;;4994952;28;20109;-78
2024/01/22 01:25:37;;;;;;;6.93;3.30;;;;;;;;;;4994927;28;20121;-78
2024/01/22 01:28:02;;;;;;;8.32;4.57;;;;;;;;;;4976850;28;20035;-78
2024/01/22 01:30:27;;;;;;;10.48;5.22;;;;;;;;;;4976448;28;20026;-78
2024/01/22 01:32:53;;;;;;;8.15;3.47;;;;;;;;;;4976541;28;20022;-78
2024/01/22 01:35:18;;;;;;;10.20;5.47;;;;;;;;;;4994164;28;20037;-78
2024/01/22 01:37:43;;;;;;;11.38;5.25;;;;;;;;;;4994325;28;20109;-78
2024/01/22 01:40:09;;;;;;;11.60;5.38;;;;;;;;;;4992671;28;20489;-78
2024/01/22 01:42:35;;;;;;;14.02;5.22;;;;;;;;;;4977028;28;20095;-78
2024/01/22 01:45:00;;;;;;;11.60;5.63;;;;;;;;;;4976926;28;20037;-78
2024/01/22 01:47:25;;;;;;;10.60;5.07;;;;;;;;;;4994155;28;20393;-78
2024/01/22 01:49:50;;;;;;;14.52;5.18;;;;;;;;;;4994017;28;20370;-78
2024/01/22 01:52:16;;;;;;;8.45;4.28;;;;;;;;;;4994080;28;20398;-78
2024/01/22 01:54:44;;;;;;;8.82;5.38;;;;;;;;;;4993656;28;20026;-77
2024/01/22 01:57:10;;;;;;;9.95;5.20;;;;;;;;;;4992413;28;20022;-78
2024/01/22 01:59:35;;;;;;;11.02;5.53;;;;;;;;;;4993664;28;20505;-78
2024/01/22 02:02:00;;;;;;;8.75;3.83;;;;;;;;;;4976579;28;20050;-78
2024/01/22 02:04:26;;;;;;;8.52;4.40;;;;;;;;;;4976247;28;20050;-77
2024/01/22 02:06:51;;;;;;;12.63;5.18;;;;;;;;;;4976142;28;20027;-78
2024/01/22 02:09:17;;;;;;;8.55;4.75;;;;;;;;;;4993945;28;20057;-78
2024/01/22 02:11:42;;;;;;;9.15;4.97;;;;;;;;;;4992584;28;20022;-78
2024/01/22 02:14:07;;;;;;;11.80;5.13;;;;;;;;;;4976062;28;20022;-78
2024/01/22 02:16:32;;;;;;;6.22;3.28;;;;;;;;;;4994293;28;20109;-77
2024/01/22 02:18:58;;;;;;;8.88;4.57;;;;;;;;;;4997256;28;20050;-78
2024/01/22 02:21:23;;;;;;;10.63;4.40;;;;;;;;;;4997504;28;20461;-78
2024/01/22 02:23:48;;;;;;;11.95;5.18;;;;;;;;;;4995384;28;20440;-77
2024/01/22 02:26:13;;;;;;;11.70;4.63;;;;;;;;;;4996525;28;20026;-77
2024/01/22 02:28:39;;;;;;;8.85;4.05;;;;;;;;;;4996542;28;20076;-78
2024/01/22 02:31:04;;;;;;;6.95;3.70;;;;;;;;;;4996457;28;20389;-78
2024/01/22 02:33:29;;;;;;;12.57;4.63;;;;;;;;;;4997078;28;20038;-78
2024/01/22 02:35:54;;;;;;;8.25;4.45;;;;;;;;;;4996430;28;20077;-78
2024/01/22 02:38:19;;;;;;;8.65;4.13;;;;;;;;;;4997085;28;20383;-78
2024/01/22 02:40:45;;;;;;;8.00;4.15;;;;;;;;;;4996618;28;20389;-78
2024/01/22 02:43:10;;;;;;;7.45;3.97;;;;;;;;;;4996106;28;20019;-78
2024/01/22 02:45:35;;;;;;;12.68;5.03;;;;;;;;;;4996590;28;20101;-78
2024/01/22 02:48:00;;;;;;;8.88;4.25;;;;;;;;;;4996166;28;20040;-78
2024/01/22 02:50:26;;;;;;;9.35;4.82;;;;;;;;;;4996291;28;20042;-77
2024/01/22 02:52:51;;;;;;;8.75;4.95;;;;;;;;;;4979015;28;20026;-78
2024/01/22 02:55:16;;;;;;;9.68;4.45;;;;;;;;;;4978508;28;20037;-78
2024/01/22 02:57:42;;;;;;;10.27;4.25;;;;;;;;;;4995933;28;20547;-78
2024/01/22 03:00:07;;;;;;;9.45;4.38;;;;;;;;;;4995969;28;20030;-77
2024/01/22 03:02:32;;;;;;;8.07;3.78;;;;;;;;;;4995756;28;20114;-78
2024/01/22 03:04:58;;;;;;;9.90;3.63;;;;;;;;;;4995736;28;20112;-77
2024/01/22 03:07:23;;;;;;;9.43;4.35;;;;;;;;;;4995626;28;20121;-78
2024/01/22 03:09:48;;;;;;;12.10;4.95;;;;;;;;;;4996019;28;20061;-79
2024/01/22 03:12:13;;;;;;;10.73;4.88;;;;;;;;;;4978380;28;20022;-77
2024/01/22 03:14:39;;;;;;;12.55;5.32;;;;;;;;;;4996207;28;20474;-78
2024/01/22 03:17:04;;;;;;;7.50;4.17;;;;;;;;;;4978304;28;20539;-77
2024/01/22 03:19:29;;;;;;;4.35;2.67;;;;;;;;;;4978037;28;20679;-77
2024/01/22 03:21:54;;;;;;;13.60;5.80;;;;;;;;;;4995258;28;20462;-79
2024/01/22 03:24:21;;;;;;;14.73;5.90;;;;;;;;;;4977984;28;20038;-78
2024/01/22 03:26:46;;;;;;;9.55;5.35;;;;;;;;;;4995832;28;20062;-79
2024/01/22 03:29:11;;;;;;;12.65;5.80;;;;;;;;;;4996597;28;20045;-78
2024/01/22 03:31:37;;;;;;;11.23;4.50;;;;;;;;;;4996770;28;20023;-78
2024/01/22 03:34:03;;;;;;;6.80;3.38;;;;;;;;;;4994715;28;20098;-78
2024/01/22 03:36:28;;;;;;;12.13;5.65;;;;;;;;;;4996949;28;20081;-78
2024/01/22 03:38:53;;;;;;;10.23;4.80;;;;;;;;;;4996536;28;20478;-78
2024/01/22 03:41:18;;;;;;;9.40;4.47;;;;;;;;;;4995240;28;20481;-77
2024/01/22 03:43:44;;;;;;;9.00;4.78;;;;;;;;;;4978102;28;20512;-78
2024/01/22 03:46:14;;;;;;;11.18;4.85;;;;;;;;;;4978494;28;20030;-78
2024/01/22 03:48:39;;;;;;;8.63;4.43;;;;;;;;;;4978175;28;20489;-78
2024/01/22 03:51:05;;;;;;;4.70;2.90;;;;;;;;;;4996984;28;20041;-78
2024/01/22 03:53:30;;;;;;;5.10;2.60;;;;;;;;;;4996138;28;20429;-78
2024/01/22 03:55:56;;;;;;;10.48;4.82;;;;;;;;;;4995764;28;20118;-79
2024/01/22 03:58:21;;;;;;;5.38;3.05;;;;;;;;;;4997197;28;20077;-78
2024/01/22 04:00:46;;;;;;;6.55;3.55;;;;;;;;;;4997487;28;20054;-78
2024/01/22 04:03:12;;;;;;;7.80;4.28;;;;;;;;;;4997090;28;20076;-79
2024/01/22 04:05:37;;;;;;;7.72;4.10;;;;;;;;;;4978173;28;20406;-78
2024/01/22 04:08:03;;;;;;;8.73;3.78;;;;;;;;;;4995294;28;20485;-78
2024/01/22 04:10:28;;;;;;;9.13;4.13;;;;;;;;;;4994037;28;20405;-78
2024/01/22 04:12:56;;;;;;;9.02;5.13;;;;;;;;;;4995221;28;20496;-78
2024/01/22 04:15:22;;;;;;;11.90;5.15;;;;;;;;;;4995605;28;20026;-78
2024/01/22 04:17:47;;;;;;;8.52;3.72;;;;;;;;;;4977817;28;20113;-78
2024/01/22 04:20:13;;;;;;;10.65;5.28;;;;;;;;;;4995956;28;20149;-77
2024/01/22 04:22:38;;;;;;;13.07;4.85;;;;;;;;;;4995286;28;20022;-79
2024/01/22 04:25:03;;;;;;;12.55;5.45;;;;;;;;;;4977943;28;20069;-78
2024/01/22 04:27:29;;;;;;;11.85;4.95;;;;;;;;;;4995193;28;20080;-78
2024/01/22 04:29:54;;;;;;;11.38;5.20;;;;;;;;;;4994746;28;20500;-78
2024/01/22 04:32:19;;;;;;;11.57;4.88;;;;;;;;;;4994775;28;20022;-78
2024/01/22 04:34:46;;;;;;;7.22;3.67;;;;;;;;;;4994410;28;20481;-78
2024/01/22 04:37:12;;;;;;;9.73;4.93;;;;;;;;;;4994489;28;20145;-76
2024/01/22 04:39:39;;;;;;;12.40;5.55;;;;;;;;;;4993373;28;20493;-78
2024/01/22 04:42:04;;;;;;;8.63;4.47;;;;;;;;;;4995055;28;20084;-79
2024/01/22 04:44:30;;;;;;;8.32;3.83;;;;;;;;;;4995461;28;20477;-79
2024/01/22 04:46:56;;;;;;;12.40;5.28;;;;;;;;;;4996909;28;20033;-79
2024/01/22 04:49:21;;;;;;;8.73;4.15;;;;;;;;;;4995991;28;20612;-78
2024/01/22 04:51:46;;;;;;;11.50;5.30;;;;;;;;;;4978623;28;20076;-79
2024/01/22 04:54:12;;;;;;;5.80;3.30;;;;;;;;;;4980144;28;20117;-78
2024/01/22 04:56:41;;;;;;;10.00;4.45;;;;;;;;;;4997299;28;20044;-79
2024/01/22 04:59:07;;;;;;;12.55;5.60;;;;;;;;;;4996684;28;20029;-79
2024/01/22 05:01:32;;;;;;;12.10;4.68;;;;;;;;;;4977945;28;20030;-77
2024/01/22 05:03:58;;;;;;;15.60;5.32;;;;;;;;;;4993720;28;20100;-77
2024/01/22 05:06:23;;;;;;;4.47;2.70;;;;;;;;;;4993815;28;20026;-77
2024/01/22 05:08:48;;;;;;;8.83;4.40;;;;;;;;;;4993294;28;20465;-78
2024/01/22 05:11:13;;;;;;;9.52;4.35;;;;;;;;;;4977199;28;20763;-78
2024/01/22 05:13:50;;;;;;;12.13;4.78;;;;;;;;;;4995028;28;20026;-76
2024/01/22 05:16:16;;;;;;;3.47;2.17;;;;;;;;;;4994683;28;20041;-78
2024/01/22 05:18:41;;;;;;;10.82;4.47;;;;;;;;;;4994006;28;20474;-77
2024/01/22 05:21:06;;;;;;;8.88;4.32;;;;;;;;;;4992207;28;20448;-77
2024/01/22 05:23:31;;;;;;;9.55;3.83;;;;;;;;;;4993746;28;20037;-79
2024/01/22 05:25:57;;;;;;;5.35;3.30;;;;;;;;;;4995526;28;20026;-78
2024/01/22 05:28:22;;;;;;;12.13;5.00;;;;;;;;;;4978151;28;20057;-78
2024/01/22 05:30:47;;;;;;;8.27;4.53;;;;;;;;;;4994447;28;20030;-79
2024/01/22 05:33:12;;;;;;;8.75;4.30;;;;;;;;;;4994771;28;20077;-78
2024/01/22 05:35:38;;;;;;;9.10;4.50;;;;;;;;;;4994661;28;20038;-79
2024/01/22 05:38:03;;;;;;;6.90;3.75;;;;;;;;;;4994665;28;20026;-79
2024/01/22 05:40:28;;;;;;;8.35;4.28;;;;;;;;;;4995008;28;20029;-78
2024/01/22 05:42:54;;;;;;;8.57;4.20;;;;;;;;;;4996552;28;20445;-79
2024/01/22 05:45:19;;;;;;;6.25;3.10;;;;;;;;;;4994312;28;20486;-78
2024/01/22 05:47:45;;;;;;;9.07;4.70;;;;;;;;;;4995152;28;20105;-78
2024/01/22 05:50:10;;;;;;;7.45;3.78;;;;;;;;;;4995132;28;20161;-77
2024/01/22 05:52:35;;;;;;;8.77;4.18;;;;;;;;;;4997308;28;20034;-78
2024/01/22 05:55:01;;;;;;;8.23;4.43;;;;;;;;;;4997848;28;20034;-77
2024/01/22 05:57:26;;;;;;;6.68;3.20;;;;;;;;;;4997239;28;20033;-77
2024/01/22 05:59:51;;;;;;;8.20;4.80;;;;;;;;;;4997790;28;20106;-77
2024/01/22 06:02:17;;;;;;;12.95;5.10;;;;;;;;;;4997494;28;20026;-77
2024/01/22 06:04:42;;;;;;;10.40;4.55;;;;;;;;;;4979875;28;20026;-77
2024/01/22 06:07:07;;;;;;;9.13;4.57;;;;;;;;;;4997233;28;20541;-78
2024/01/22 06:09:32;;;;;;;10.45;4.72;;;;;;;;;;4997910;28;20030;-81
2024/01/22 06:11:57;;;;;;;13.07;5.22;;;;;;;;;;4999757;28;20057;-79
2024/01/22 06:14:23;;;;;;;9.15;4.22;;;;;;;;;;4999760;28;20062;-80
2024/01/22 06:16:48;;;;;;;5.82;3.28;;;;;;;;;;4999486;28;20029;-80
2024/01/22 06:19:13;;;;;;;6.83;3.23;;;;;;;;;;4997873;28;20042;-80
2024/01/22 06:21:38;;;;;;;13.35;4.90;;;;;;;;;;4999053;28;20338;-80
2024/01/22 06:24:04;;;;;;;9.17;4.37;;;;;;;;;;4982361;28;20038;-80
2024/01/22 06:26:29;;;;;;;9.18;4.25;;;;;;;;;;4998350;28;20390;-81
2024/01/22 06:28:57;;;;;;;7.28;3.40;;;;;;;;;;4999408;28;20018;-79
2024/01/22 06:31:22;;;;;;;9.45;4.60;;;;;;;;;;4999617;28;20101;-81
2024/01/22 06:33:47;;;;;;;9.38;4.55;;;;;;;;;;4981497;28;20485;-80
2024/01/22 06:36:12;;;;;;;7.43;3.30;;;;;;;;;;4982537;28;20528;-81
2024/01/22 06:38:38;;;;;;;5.50;3.22;;;;;;;;;;4981562;28;20117;-80
2024/01/22 06:41:09;;;;;;;8.93;3.93;;;;;;;;;;4998962;28;20033;-80
2024/01/22 06:43:34;;;;;;;8.55;4.25;;;;;;;;;;4999561;28;20310;-80
2024/01/22 06:46:00;;;;;;;8.53;4.27;;;;;;;;;;4998622;28;20018;-80
2024/01/22 06:48:25;;;;;;;8.80;3.22;;;;;;;;;;4999827;28;20319;-82
2024/01/22 06:50:51;;;;;;;7.82;3.13;;;;;;;;;;4998593;28;20053;-81
2024/01/22 06:53:16;;;;;;;8.20;4.22;;;;;;;;;;4999626;28;20026;-79
2024/01/22 06:55:41;;;;;;;4.75;2.30;;;;;;;;;;5001601;28;20114;-81
2024/01/22 06:58:07;;;;;;;6.05;3.33;;;;;;;;;;4998155;28;20405;-80
2024/01/22 07:00:33;;;;;;;7.13;3.72;;;;;;;;;;4997982;28;20033;-81
2024/01/22 07:02:58;;;;;;;6.25;3.33;;;;;;;;;;5000285;28;20014;-80
2024/01/22 07:05:26;;;;;;;9.60;3.78;;;;;;;;;;4999154;28;20049;-79
2024/01/22 07:07:51;;;;;;;7.68;3.72;;;;;;;;;;4998432;28;20481;-80
2024/01/22 07:10:16;;;;;;;8.95;3.95;;;;;;;;;;5000249;28;20034;-80
2024/01/22 07:12:42;;;;;;;4.85;2.83;;;;;;;;;;4996683;28;20393;-80
2024/01/22 07:15:12;;;;;;;8.70;4.22;;;;;;;;;;4998108;28;20425;-80
2024/01/22 07:17:39;;;;;;;8.70;4.55;;;;;;;;;;4998842;28;20045;-80
2024/01/22 07:20:06;;;;;;;7.10;3.78;;;;;;;;;;4997536;28;20019;-80
2024/01/22 07:22:31;;;;;;;8.18;4.03;;;;;;;;;;4980096;28;20018;-80
2024/01/22 07:24:57;;;;;;;8.32;4.03;;;;;;;;;;4998230;28;20081;-79
2024/01/22 07:27:23;;;;;;;7.28;3.55;;;;;;;;;;4997661;28;20041;-80
2024/01/22 07:29:48;;;;;;;8.48;3.55;;;;;;;;;;4980947;28;20049;-81
2024/01/22 07:32:13;;;;;;;7.63;3.83;;;;;;;;;;4996181;28;20030;-80
2024/01/22 07:34:38;;;;;;;6.65;3.45;;;;;;;;;;4995660;28;20275;-79
2024/01/22 07:37:03;;;;;;;5.57;3.10;;;;;;;;;;4996658;28;20030;-80
2024/01/22 07:39:29;;;;;;;6.40;2.60;;;;;;;;;;4997477;28;20267;-80
2024/01/22 07:41:54;;;;;;;5.63;2.90;;;;;;;;;;4978081;28;20022;-80
2024/01/22 07:44:19;;;;;;;8.13;2.85;;;;;;;;;;4995703;28;20130;-78
2024/01/22 07:46:44;;;;;;;4.57;2.72;;;;;;;;;;4996466;28;20029;-80
2024/01/22 07:49:09;;;;;;;5.07;2.87;;;;;;;;;;4995134;28;20030;-79
2024/01/22 07:51:35;;;;;;;5.95;3.00;;;;;;;;;;4995963;28;20327;-80
2024/01/22 07:54:01;;;;;;;6.07;3.10;;;;;;;;;;4978089;28;20026;-79
2024/01/22 07:56:26;;;;;;;3.35;1.98;;;;;;;;;;4978371;28;20033;-79
2024/01/22 07:58:51;;;;;;;5.78;2.80;;;;;;;;;;4978692;28;20417;-80
2024/01/22 08:01:17;;;;;;;5.20;3.08;;;;;;;;;;4978328;28;20053;-81
2024/01/22 08:03:42;;;;;;;6.57;2.90;;;;;;;;;;4995499;28;20073;-79
2024/01/22 08:06:07;;;;;;;5.03;2.87;;;;;;;;;;4996377;28;20069;-81
2024/01/22 08:08:32;;;;;;;5.23;3.10;;;;;;;;;;4996033;28;20302;-81
2024/01/22 08:10:57;;;;;;;5.05;2.58;;;;;;;;;;4978753;28;20295;-81
2024/01/22 08:13:23;;;;;;;5.22;2.60;;;;;;;;;;4996353;28;20085;-79
2024/01/22 08:15:49;;;;;;;7.22;2.88;;;;;;;;;;4995451;28;20057;-80
2024/01/22 08:18:15;;;;;;;5.13;2.67;;;;;;;;;;4995968;28;20543;-80
2024/01/22 08:20:43;;;;;;;5.38;2.85;;;;;;;;;;4995880;28;20081;-80
2024/01/22 08:23:09;;;;;;;9.77;2.90;;;;;;;;;;4996605;28;20018;-81
2024/01/22 08:25:35;;;;;;;7.50;2.65;;;;;;;;;;4982109;28;20034;-80
2024/01/22 08:28:00;;;;;;;4.88;2.67;;;;;;;;;;4979018;28;20068;-79
2024/01/22 08:30:26;;;;;;;11.23;3.00;;;;;;;;;;4979676;28;20053;-78
2024/01/22 08:32:52;;;;;;;5.30;3.03;;;;;;;;;;4995106;28;20077;-78
2024/01/22 08:35:18;;;;;;;6.05;2.70;;;;;;;;;;4997207;28;20034;-81
2024/01/22 08:37:47;;;;;;;4.03;2.50;;;;;;;;;;4996158;28;20026;-79
2024/01/22 08:40:16;;;;;;;6.05;2.47;;;;;;;;;;4996579;28;20079;-80
2024/01/22 08:42:42;;;;;;;5.40;2.67;;;;;;;;;;4996100;28;20041;-80
2024/01/22 08:45:09;;;;;;;2.92;1.75;;;;;;;;;;4996156;28;20387;-79
2024/01/22 08:47:34;;;;;;;4.40;2.45;;;;;;;;;;4996739;28;20045;-82
2024/01/22 08:49:59;;;;;;;7.85;2.30;;;;;;;;;;4997603;28;20030;-80
2024/01/22 08:52:24;;;;;;;5.13;2.70;;;;;;;;;;4996151;28;20018;-81
2024/01/22 08:54:50;;;;;;;5.05;3.05;;;;;;;;;;4996655;28;20259;-81
2024/01/22 08:57:16;;;;;;;6.30;2.23;;;;;;;;;;4997767;28;20485;-81
2024/01/22 08:59:42;;;;;;;6.32;2.63;;;;;;;;;;4995877;28;20307;-80
2024/01/22 09:02:07;;;;;;;4.82;2.35;;;;;;;;;;4995842;28;20058;-80
2024/01/22 09:04:32;;;;;;;5.10;2.40;;;;;;;;;;4995547;28;20029;-81
2024/01/22 09:06:57;;;;;;;5.60;2.77;;;;;;;;;;4996031;28;20264;-80
2024/01/22 09:09:22;;;;;;;4.97;2.17;;;;;;;;;;4997860;28;20264;-80
2024/01/22 09:11:49;;;;;;;6.00;2.50;;;;;;;;;;4997381;28;20275;-81
2024/01/22 09:14:14;;;;;;;4.22;1.95;;;;;;;;;;4995465;28;20263;-80
2024/01/22 09:16:39;;;;;;;6.70;3.10;;;;;;;;;;4979338;28;20073;-81
2024/01/22 09:19:05;;;;;;;7.63;3.10;;;;;;;;;;4996441;28;20256;-81
2024/01/22 09:21:31;;;;;;;5.50;3.15;;;;;;;;;;4996608;28;20065;-81
2024/01/22 09:23:56;;;;;;;7.35;3.40;;;;;;;;;;4979201;28;20026;-81
2024/01/22 09:26:21;;;;;;;7.63;2.93;;;;;;;;;;4980037;28;20109;-80
2024/01/22 09:28:48;;;;;;;7.17;2.87;;;;;;;;;;5000355;28;20307;-79
2024/01/22 09:31:13;;;;;;;6.18;2.75;;;;;;;;;;4998349;28;20264;-80
2024/01/22 09:33:38;;;;;;;6.20;3.37;;;;;;;;;;5000212;28;20028;-81
2024/01/22 09:36:04;;;;;;;5.40;2.87;;;;;;;;;;5000396;28;20351;-81
2024/01/22 09:38:29;;;;;;;5.80;2.47;;;;;;;;;;4983052;28;20299;-79
2024/01/22 09:40:54;;;;;;;5.35;2.53;;;;;;;;;;4999116;28;20022;-80
2024/01/22 09:43:20;;;;;;;6.32;2.95;;;;;;;;;;4998544;28;20026;-80
2024/01/22 09:45:49;;;;;;;5.35;2.47;;;;;;;;;;5000207;28;20030;-80
2024/01/22 09:48:15;;;;;;;6.25;3.05;;;;;;;;;;5000447;28;20026;-80
2024/01/22 09:50:41;;;;;;;4.18;2.40;;;;;;;;;;5000599;28;20057;-80
2024/01/22 09:53:10;;;;;;;9.77;3.00;;;;;;;;;;4998356;28;20086;-78
2024/01/22 09:55:39;;;;;;;6.35;2.60;;;;;;;;;;5000286;28;20091;-78
2024/01/22 09:58:07;;;;;;;7.10;2.42;;;;;;;;;;5002064;28;20018;-79
2024/01/22 10:00:34;;;;;;;5.45;2.47;;;;;;;;;;4999422;28;20486;-77
2024/01/22 10:03:00;;;;;;;4.30;2.78;;;;;;;;;;4995996;28;20474;-77
2024/01/22 10:05:25;;;;;;;4.97;2.45;;;;;;;;;;4997060;28;20085;-78
2024/01/22 10:07:51;;;;;;;7.40;2.60;;;;;;;;;;4995572;28;20026;-77
2024/01/22 10:10:17;;;;;;;4.65;2.60;;;;;;;;;;4996641;28;20033;-78
2024/01/22 10:13:07;;;;;;;4.93;2.30;;;;;;;;;;4994449;28;20026;-78
2024/01/22 10:15:34;;;;;;;5.53;2.33;;;;;;;;;;4996531;28;20085;-77
2024/01/22 10:18:13;;;;;;;5.43;2.40;;;;;;;;;;4996562;28;20454;-77
2024/01/22 10:20:39;;;;;;;4.57;2.15;;;;;;;;;;4979720;28;20034;-77
2024/01/22 10:23:04;;;;;;;5.45;1.90;;;;;;;;;;4996766;28;20580;-77
2024/01/22 10:25:30;;;;;;;5.38;2.28;;;;;;;;;;4996430;28;20026;-77
2024/01/22 10:28:06;;;;;;;7.03;2.33;;;;;;;;;;4996518;28;20397;-76
2024/01/22 10:30:32;;;;;;;4.38;2.20;;;;;;;;;;4995271;28;20034;-76
2024/01/22 10:33:14;;;;;;;7.00;2.70;;;;;;;;;;4978855;28;20508;-77
2024/01/22 10:35:40;;;;;;;1.65;1.23;;;;;;;;;;4978844;28;20511;-77
2024/01/22 10:38:07;;;;;;;5.25;2.60;;;;;;;;;;4995249;28;20045;-78
2024/01/22 10:40:32;;;;;;;5.18;2.30;;;;;;;;;;4996568;28;20034;-78
2024/01/22 10:42:57;;;;;;;4.18;2.15;;;;;;;;;;4996718;28;20030;-76
2024/01/22 10:45:25;;;;;;;11.37;5.70;;;;;;;;;;4996262;28;20022;-76
2024/01/22 10:47:52;;;;;;;5.40;2.60;;;;;;;;;;4997216;28;20268;-79
2024/01/22 10:50:18;;;;;;;7.68;2.50;;;;;;;;;;4996798;28;20033;-78
2024/01/22 10:52:44;;;;;;;6.07;2.45;;;;;;;;;;4979645;28;20109;-77
2024/01/22 10:55:09;;;;;;;6.63;2.70;;;;;;;;;;4996539;28;20553;-81
2024/01/22 10:57:39;;;;;;;3.85;2.25;;;;;;;;;;4995620;28;20058;-76
2024/01/22 11:00:07;;;;;;;4.35;2.70;;;;;;;;;;4995595;28;20031;-76
2024/01/22 11:02:35;;;;;;;4.13;2.55;;;;;;;;;;4995611;28;20034;-77
2024/01/22 11:05:20;;;;;;;4.43;2.47;;;;;;;;;;4996108;28;20061;-77
2024/01/22 11:07:49;;;;;;;6.47;3.03;;;;;;;;;;4996003;28;20018;-77
2024/01/22 11:10:15;;;;;;;4.82;2.40;;;;;;;;;;4978211;28;20145;-77
2024/01/22 11:12:51;;;;;;;4.82;2.78;;;;;;;;;;4995647;28;20034;-77
2024/01/22 11:15:16;;;;;;;5.97;2.78;;;;;;;;;;4994558;28;20475;-77
2024/01/22 11:17:42;;;;;;;6.35;2.90;;;;;;;;;;4995685;28;20064;-77
2024/01/22 11:20:14;;;;;;;6.90;2.58;;;;;;;;;;4995279;28;20093;-77
2024/01/22 11:22:40;;;;;;;6.13;2.70;;;;;;;;;;4995356;28;20081;-76
2024/01/22 11:25:13;;;;;;;4.97;2.53;;;;;;;;;;4995324;28;20026;-77
2024/01/22 11:27:43;;;;;;;5.97;2.95;;;;;;;;;;4977937;28;20045;-77
2024/01/22 11:30:20;;;;;;;4.65;2.40;;;;;;;;;;4995330;28;20397;-76
2024/01/22 11:32:46;;;;;;;6.22;3.00;;;;;;;;;;4995225;28;20045;-77
2024/01/22 11:35:11;;;;;;;5.43;2.53;;;;;;;;;;4995005;28;20509;-76
2024/01/22 11:37:37;;;;;;;6.20;2.80;;;;;;;;;;4978647;28;20386;-76
2024/01/22 11:40:06;;;;;;;4.32;2.40;;;;;;;;;;4995275;28;20682;-76
2024/01/22 11:42:31;;;;;;;6.78;2.83;;;;;;;;;;4994983;28;20026;-77
2024/01/22 11:45:08;;;;;;;8.85;2.88;;;;;;;;;;4995303;28;20030;-77
2024/01/22 11:47:33;;;;;;;3.72;2.10;;;;;;;;;;4994776;28;20088;-77
2024/01/22 11:50:01;;;;;;;4.18;2.30;;;;;;;;;;4994533;28;20030;-76
2024/01/22 11:52:27;;;;;;;4.75;2.40;;;;;;;;;;4994742;28;20398;-77
2024/01/22 11:54:58;;;;;;;5.68;2.70;;;;;;;;;;4994814;28;20030;-75
2024/01/22 11:57:25;;;;;;;4.93;2.53;;;;;;;;;;4994745;28;20519;-76
2024/01/22 12:00:01;;;;;;;4.65;2.70;;;;;;;;;;4994565;28;20042;-77
2024/01/22 12:02:26;;;;;;;6.13;2.53;;;;;;;;;;4994302;28;20037;-77
2024/01/22 12:05:07;;;;;;;5.55;2.70;;;;;;;;;;4994747;28;20030;-77
2024/01/22 12:07:43;;;;;;;7.82;2.53;;;;;;;;;;4994773;28;20561;-76
2024/01/22 12:10:23;;;;;;;3.35;2.22;;;;;;;;;;4977548;28;20042;-76
2024/01/22 12:12:59;;;;;;;4.85;2.65;;;;;;;;;;4994455;28;20056;-76
2024/01/22 12:15:28;;;;;;;4.90;2.55;;;;;;;;;;4994314;28;20134;-76
2024/01/22 12:17:54;;;;;;;6.88;2.83;;;;;;;;;;4994601;28;20030;-76
2024/01/22 12:20:21;;;;;;;4.45;2.70;;;;;;;;;;4976660;28;20034;-76
2024/01/22 12:23:00;;;;;;;4.70;2.20;;;;;;;;;;4976665;28;20034;-76
2024/01/22 12:25:36;;;;;;;3.78;2.25;;;;;;;;;;4994351;28;20030;-77
2024/01/22 12:28:12;;;;;;;6.53;2.35;;;;;;;;;;4976592;28;20109;-76
2024/01/22 12:30:38;;;;;;;3.90;2.22;;;;;;;;;;4976381;28;20022;-77
2024/01/22 12:33:03;;;;;;;5.38;2.90;;;;;;;;;;4993940;28;20501;-77
2024/01/22 12:35:29;;;;;;;6.40;2.70;;;;;;;;;;4993724;28;20062;-77
2024/01/22 12:37:54;;;;;;;4.07;2.10;;;;;;;;;;4976293;28;20025;-77
2024/01/22 12:40:20;;;;;;;3.78;1.98;;;;;;;;;;4993772;28;20092;-77
2024/01/22 12:42:47;;;;;;;3.33;1.60;;;;;;;;;;4992599;28;20477;-77
2024/01/22 12:45:14;;;;;;;3.35;2.08;;;;;;;;;;4993744;28;20028;-77
2024/01/22 12:47:41;;;;;;;3.80;2.13;;;;;;;;;;4993963;28;20058;-77
2024/01/22 12:50:08;;;;;;;5.15;2.00;;;;;;;;;;4993768;28;20124;-77
2024/01/22 12:52:33;;;;;;;4.50;2.38;;;;;;;;;;4994178;28;20086;-77
2024/01/22 12:55:02;;;;;;;5.28;2.58;;;;;;;;;;4993919;28;20026;-77
2024/01/22 12:57:28;;;;;;;5.28;2.75;;;;;;;;;;4993930;28;20026;-77
2024/01/22 12:59:53;;;;;;;5.13;2.40;;;;;;;;;;4993389;28;20502;-77
2024/01/22 13:02:18;;;;;;;4.28;2.20;;;;;;;;;;4993234;28;20029;-77
2024/01/22 13:04:44;;;;;;;4.35;2.50;;;;;;;;;;4992411;28;20018;-77
2024/01/22 13:07:10;;;;;;;3.15;1.60;;;;;;;;;;4993677;28;20034;-77
2024/01/22 13:09:36;;;;;;;3.85;1.80;;;;;;;;;;4995032;28;20022;-77
2024/01/22 13:12:02;;;;;;;4.53;1.90;;;;;;;;;;4993713;28;20510;-76
2024/01/22 13:14:28;;;;;;;3.80;1.90;;;;;;;;;;4993844;28;20041;-77
2024/01/22 13:16:53;;;;;;;3.30;1.70;;;;;;;;;;4976633;28;20022;-76
2024/01/22 13:19:18;;;;;;;5.18;1.88;;;;;;;;;;4993470;28;20054;-77
2024/01/22 13:21:44;;;;;;;3.17;1.80;;;;;;;;;;4993463;28;20117;-77
2024/01/22 13:24:09;;;;;;;3.58;1.80;;;;;;;;;;4993393;28;20287;-76
2024/01/22 13:26:34;;;;;;;4.07;1.40;;;;;;;;;;4993703;28;20034;-77
2024/01/22 13:28:59;;;;;;;4.40;1.60;;;;;;;;;;4993884;28;20295;-77
2024/01/22 13:31:25;;;;;;;2.60;1.30;;;;;;;;;;4976061;28;20255;-77
2024/01/22 13:33:50;;;;;;;3.33;1.50;;;;;;;;;;4993881;28;20035;-77
2024/01/22 13:36:16;;;;;;;4.22;1.42;;;;;;;;;;4993073;28;20322;-76
2024/01/22 13:38:42;;;;;;;2.83;1.30;;;;;;;;;;4993340;28;20073;-76
2024/01/22 13:41:07;;;;;;;4.10;1.67;;;;;;;;;;4993535;28;20037;-76
2024/01/22 13:43:33;;;;;;;3.55;1.33;;;;;;;;;;4993371;28;20030;-77
2024/01/22 13:45:58;;;;;;;2.15;1.02;;;;;;;;;;4993022;28;20027;-77
2024/01/22 13:48:23;;;;;;;2.13;1.27;;;;;;;;;;4992841;28;20497;-77
2024/01/22 13:50:48;;;;;;;1.80;1.10;;;;;;;;;;4993115;28;20766;-76
2024/01/22 13:53:16;;;;;;;2.95;0.95;;;;;;;;;;4993367;28;20820;-76
2024/01/22 13:55:41;;;;;;;5.38;1.27;;;;;;;;;;4991727;28;20050;-76
2024/01/22 13:58:07;;;;;;;2.03;1.30;;;;;;;;;;4992949;28;20124;-77
2024/01/22 14:00:32;;;;;;;3.28;1.52;;;;;;;;;;4993129;28;20034;-75
2024/01/22 14:02:57;;;;;;;3.88;1.60;;;;;;;;;;4992905;28;20557;-76
2024/01/22 14:05:24;;;;;;;3.63;1.87;;;;;;;;;;4992886;28;20034;-76
2024/01/22 14:07:49;;;;;;;4.38;2.58;;;;;;;;;;4992888;28;20252;-76
2024/01/22 14:10:14;;;;;;;5.10;2.53;;;;;;;;;;4993238;28;20026;-76
2024/01/22 14:12:39;;;;;;;2.53;1.70;;;;;;;;;;4994810;28;20352;-77
2024/01/22 14:15:05;;;;;;;5.97;2.90;;;;;;;;;;4996647;28;20066;-76
2024/01/22 14:17:30;;;;;;;4.22;2.42;;;;;;;;;;4978767;28;20256;-76
2024/01/22 14:19:56;;;;;;;5.07;2.83;;;;;;;;;;4996168;28;20106;-77
2024/01/22 14:22:23;;;;;;;4.85;2.63;;;;;;;;;;4977565;28;20363;-77
2024/01/22 14:24:48;;;;;;;5.15;3.05;;;;;;;;;;4996812;28;20433;-77
2024/01/22 14:27:13;;;;;;;6.70;2.87;;;;;;;;;;4996597;28;20030;-77
2024/01/22 14:29:39;;;;;;;4.18;2.70;;;;;;;;;;4996213;28;20314;-76
2024/01/22 14:32:04;;;;;;;5.53;2.80;;;;;;;;;;4996172;28;20424;-77
2024/01/22 14:34:30;;;;;;;4.72;2.45;;;;;;;;;;4996237;28;20667;-76